Time;durP1;ratioP1;P1;durP2;ratioP2;P2;SDS_P1;SDS_P2;PMS_P1;PMS_P2;Temp;Humidity;BMP_temperature;BMP_pressure;BME280_temperature;BME280_humidity;BME280_pressure;Samples;Min_cycle;Max_cycle;Signal;HPM_P1;HPM_P2
2022/10/15 00:01:50;;;;;;;4.93;4.25;;;;;;;15.92;72.71;100667.84;4991843;28;20507;-56
2022/10/15 00:04:17;;;;;;;5.90;4.65;;;;;;;15.81;73.57;100659.56;4992317;28;20023;-56
2022/10/15 00:06:43;;;;;;;5.65;4.57;;;;;;;15.63;74.12;100659.81;4992290;28;20544;-56
2022/10/15 00:09:09;;;;;;;6.22;4.68;;;;;;;15.77;73.94;100668.44;4992079;28;20034;-56
2022/10/15 00:11:35;;;;;;;8.82;4.88;;;;;;;15.56;74.07;100668.03;4992497;28;20387;-58
2022/10/15 00:14:01;;;;;;;7.75;4.50;;;;;;;15.50;75.51;100654.72;4992501;28;20026;-56
2022/10/15 00:16:28;;;;;;;10.55;4.80;;;;;;;15.57;75.10;100658.06;4989163;28;20554;-55
2022/10/15 00:18:56;;;;;;;5.20;4.57;;;;;;;15.62;75.57;100666.25;4979404;28;20105;-55
2022/10/15 00:21:22;;;;;;;6.57;5.07;;;;;;;15.58;75.46;100655.13;4991427;28;20031;-55
2022/10/15 00:23:49;;;;;;;8.63;5.35;;;;;;;15.62;75.50;100649.25;4991852;28;20022;-55
2022/10/15 00:26:18;;;;;;;7.38;5.03;;;;;;;15.66;76.02;100653.13;4991845;28;20173;-55
2022/10/15 00:28:45;;;;;;;9.95;5.95;;;;;;;15.70;76.08;100656.97;4974206;28;20054;-54
2022/10/15 00:31:16;;;;;;;12.98;6.68;;;;;;;15.64;76.41;100658.75;4970756;28;20423;-55
2022/10/15 00:33:43;;;;;;;6.53;5.65;;;;;;;15.73;76.31;100657.28;4985560;28;20117;-55
2022/10/15 00:36:15;;;;;;;6.97;6.10;;;;;;;15.53;77.26;100662.31;4978543;28;20030;-55
2022/10/15 00:38:41;;;;;;;9.23;6.47;;;;;;;15.58;77.69;100655.13;4994563;28;20033;-53
2022/10/15 00:41:12;;;;;;;7.78;6.43;;;;;;;15.72;77.08;100660.25;4980484;28;20031;-55
2022/10/15 00:43:45;;;;;;;14.32;6.60;;;;;;;15.64;77.17;100660.63;4978419;28;20031;-54
2022/10/15 00:46:23;;;;;;;9.48;7.63;;;;;;;15.64;77.74;100657.94;4994606;28;20114;-55
2022/10/15 00:48:54;;;;;;;20.52;8.07;;;;;;;15.55;78.57;100665.59;4995442;28;20035;-55
2022/10/15 00:51:23;;;;;;;9.02;7.35;;;;;;;15.47;79.32;100656.00;4988650;28;20061;-57
2022/10/15 00:53:50;;;;;;;11.45;8.05;;;;;;;15.45;79.32;100657.31;4987568;28;20023;-56
2022/10/15 00:56:21;;;;;;;10.63;7.38;;;;;;;15.58;78.86;100665.09;4981673;28;20026;-56
2022/10/15 00:58:49;;;;;;;9.10;7.15;;;;;;;15.63;78.25;100676.00;4995757;28;20077;-56
2022/10/15 01:01:16;;;;;;;10.82;8.07;;;;;;;15.61;78.25;100669.19;4994841;28;20034;-56
2022/10/15 01:03:42;;;;;;;11.32;7.85;;;;;;;15.59;78.23;100672.13;4979521;28;20101;-56
2022/10/15 01:06:08;;;;;;;10.90;7.35;;;;;;;15.37;79.31;100671.19;4975539;28;20098;-56
2022/10/15 01:08:35;;;;;;;11.52;8.40;;;;;;;15.38;79.45;100673.66;4980555;28;20022;-56
2022/10/15 01:11:22;;;;;;;12.20;8.43;;;;;;;15.38;79.59;100670.97;4994657;28;20120;-56
2022/10/15 01:14:16;;;;;;;11.05;8.23;;;;;;;15.45;79.34;100670.81;4994936;28;20386;-56
2022/10/15 01:17:03;;;;;;;11.02;8.13;;;;;;;15.29;79.85;100670.50;4994366;28;20018;-56
2022/10/15 01:19:45;;;;;;;10.57;8.40;;;;;;;15.19;80.01;100669.50;4994427;28;20072;-56
2022/10/15 01:22:23;;;;;;;13.82;8.60;;;;;;;15.22;80.32;100663.63;4994933;28;20070;-56
2022/10/15 01:25:23;;;;;;;11.80;8.23;;;;;;;15.17;80.81;100675.13;4994420;28;20103;-56
2022/10/15 01:28:15;;;;;;;14.43;9.35;;;;;;;15.17;80.95;100677.03;4970485;28;20070;-56
2022/10/15 01:30:46;;;;;;;12.38;9.20;;;;;;;14.89;82.05;100667.03;4991051;28;20026;-56
2022/10/15 01:33:44;;;;;;;13.43;9.43;;;;;;;14.85;82.66;100673.94;4988401;28;20019;-57
2022/10/15 01:36:31;;;;;;;12.35;9.20;;;;;;;14.94;82.06;100670.66;4957378;28;20082;-56
2022/10/15 01:38:58;;;;;;;12.65;9.38;;;;;;;14.90;82.38;100680.25;4981000;28;20026;-56
2022/10/15 01:41:25;;;;;;;16.30;9.77;;;;;;;14.89;82.43;100684.03;4993910;28;20121;-57
2022/10/15 01:44:31;;;;;;;11.38;9.10;;;;;;;14.84;82.49;100681.22;4993889;28;20076;-56
2022/10/15 01:47:00;;;;;;;;;;;;;;;14.93;82.20;100678.94;4984190;28;20044;-56
2022/10/15 01:49:33;;;;;;;13.70;10.35;;;;;;;14.86;83.05;100681.78;4994052;28;19921;-56
2022/10/15 01:52:05;;;;;;;17.02;10.10;;;;;;;14.87;83.04;100694.19;4994064;28;20073;-57
2022/10/15 01:54:32;;;;;;;13.70;10.02;;;;;;;14.79;83.31;100695.41;4992285;28;20029;-56
2022/10/15 01:56:59;;;;;;;14.27;10.35;;;;;;;14.80;83.39;100696.22;4974447;28;20030;-56
2022/10/15 01:59:30;;;;;;;18.85;9.88;;;;;;;14.92;82.93;100702.38;4977064;28;20033;-56
2022/10/15 02:01:57;;;;;;;14.52;9.98;;;;;;;14.87;83.09;100699.59;4974480;28;20037;-56
2022/10/15 02:04:26;;;;;;;17.40;9.98;;;;;;;14.81;83.19;100705.94;4984377;28;20403;-56
2022/10/15 02:07:05;;;;;;;15.57;10.20;;;;;;;14.84;83.36;100701.97;4969408;28;20173;-56
2022/10/15 02:09:57;;;;;;;13.05;10.32;;;;;;;14.82;83.87;100714.81;4992160;28;20105;-57
2022/10/15 02:12:36;;;;;;;14.05;9.38;;;;;;;14.70;84.11;100712.16;4982630;28;20042;-53
2022/10/15 02:15:16;;;;;;;14.10;9.65;;;;;;;14.80;84.06;100717.78;4981323;28;20030;-56
2022/10/15 02:17:59;;;;;;;15.48;9.45;;;;;;;14.77;84.16;100724.47;4986783;28;20034;-57
2022/10/15 02:20:32;;;;;;;18.02;10.00;;;;;;;14.78;84.03;100720.72;4982587;28;20049;-56
2022/10/15 02:23:07;;;;;;;17.35;10.40;;;;;;;14.84;84.60;100718.13;4986694;28;20034;-56
2022/10/15 02:25:34;;;;;;;;;;;;;;;14.77;84.41;100716.38;4991989;28;20029;-56
2022/10/15 02:28:04;;;;;;;14.75;10.23;;;;;;;14.60;84.74;100722.69;4992320;28;19939;-57
2022/10/15 02:30:32;;;;;;;13.95;10.82;;;;;;;14.62;85.18;100723.31;4992208;28;20089;-56
2022/10/15 02:32:59;;;;;;;14.93;11.07;;;;;;;14.56;85.78;100726.94;4992588;28;20092;-56
2022/10/15 02:35:26;;;;;;;18.50;11.63;;;;;;;14.43;86.38;100722.56;4991833;28;20030;-56
2022/10/15 02:37:56;;;;;;;21.08;11.77;;;;;;;14.46;86.40;100725.63;4991821;28;20102;-56
2022/10/15 02:40:27;;;;;;;15.00;10.65;;;;;;;14.53;86.23;100717.44;4991956;28;20080;-56
2022/10/15 02:42:55;;;;;;;16.35;11.40;;;;;;;14.53;86.21;100728.22;4992231;28;20062;-56
2022/10/15 02:45:21;;;;;;;16.13;11.27;;;;;;;14.48;86.53;100736.19;4992250;28;20038;-56
2022/10/15 02:47:47;;;;;;;19.02;12.63;;;;;;;14.60;86.07;100745.06;4991324;28;20026;-56
2022/10/15 02:50:13;;;;;;;20.08;12.50;;;;;;;14.58;86.45;100752.56;4992069;28;20049;-56
2022/10/15 02:52:39;;;;;;;17.75;12.55;;;;;;;14.47;86.67;100751.50;4992009;28;20458;-56
2022/10/15 02:55:06;;;;;;;18.67;10.80;;;;;;;14.46;86.25;100755.22;4990166;28;20027;-56
2022/10/15 02:57:32;;;;;;;15.70;11.32;;;;;;;14.51;85.52;100758.09;4991848;28;20117;-56
2022/10/15 02:59:59;;;;;;;18.48;11.60;;;;;;;14.44;86.05;100753.84;4990964;28;20038;-56
2022/10/15 03:02:25;;;;;;;14.52;10.90;;;;;;;14.31;86.14;100752.19;4991907;28;20030;-57
2022/10/15 03:04:51;;;;;;;17.10;10.23;;;;;;;14.43;85.40;100771.84;4991878;28;20042;-56
2022/10/15 03:07:17;;;;;;;14.43;10.38;;;;;;;14.41;85.81;100765.06;4991686;28;20532;-57
2022/10/15 03:09:44;;;;;;;16.10;11.10;;;;;;;14.46;85.91;100765.19;4991276;28;20092;-57
2022/10/15 03:12:10;;;;;;;17.05;11.00;;;;;;;14.44;86.44;100762.75;4990429;28;20517;-57
2022/10/15 03:14:36;;;;;;;15.98;11.45;;;;;;;14.56;85.87;100764.66;4991920;28;20113;-57
2022/10/15 03:17:02;;;;;;;22.85;12.98;;;;;;;14.53;85.97;100758.66;4991602;28;20037;-57
2022/10/15 03:19:28;;;;;;;17.52;12.35;;;;;;;14.57;86.02;100768.97;4990243;28;20043;-57
2022/10/15 03:21:54;;;;;;;19.35;11.25;;;;;;;14.62;85.53;100769.09;4980691;28;20124;-57
2022/10/15 03:24:21;;;;;;;16.10;11.00;;;;;;;14.46;85.84;100768.69;4984773;28;20070;-56
2022/10/15 03:26:47;;;;;;;14.75;10.20;;;;;;;14.50;85.82;100778.00;4991486;28;20057;-57
2022/10/15 03:29:13;;;;;;;16.30;10.45;;;;;;;14.63;85.33;100781.50;4990431;28;20376;-56
2022/10/15 03:31:39;;;;;;;18.17;11.55;;;;;;;14.55;85.71;100779.16;4987215;28;20019;-57
2022/10/15 03:34:06;;;;;;;15.38;10.30;;;;;;;14.60;85.31;100773.88;4990195;28;20026;-56
2022/10/15 03:36:32;;;;;;;17.85;10.98;;;;;;;14.59;85.38;100783.03;4974975;28;20418;-57
2022/10/15 03:38:58;;;;;;;16.23;11.05;;;;;;;14.51;85.22;100770.72;4990387;28;20391;-57
2022/10/15 03:41:24;;;;;;;15.75;10.23;;;;;;;14.50;85.79;100775.31;4990350;28;20112;-56
2022/10/15 03:43:51;;;;;;;18.83;11.65;;;;;;;14.49;85.90;100780.91;4990925;28;20483;-57
2022/10/15 03:46:17;;;;;;;19.30;11.25;;;;;;;14.38;86.31;100787.91;4992307;28;20042;-56
2022/10/15 03:48:43;;;;;;;15.75;10.85;;;;;;;14.41;85.96;100792.81;4990614;28;20022;-56
2022/10/15 03:51:09;;;;;;;16.77;11.18;;;;;;;14.49;85.69;100800.59;4991844;28;20042;-56
2022/10/15 03:53:35;;;;;;;16.48;10.23;;;;;;;14.52;84.93;100794.72;4991038;28;20022;-56
2022/10/15 03:56:05;;;;;;;14.38;9.43;;;;;;;14.50;85.15;100798.72;4990457;28;20034;-56
2022/10/15 03:58:32;;;;;;;15.15;10.15;;;;;;;14.53;85.51;100792.84;4990406;28;20077;-56
2022/10/15 04:00:58;;;;;;;14.90;10.63;;;;;;;14.55;85.43;100801.53;4989063;28;20038;-57
2022/10/15 04:03:24;;;;;;;16.13;10.48;;;;;;;14.47;85.68;100797.31;4989996;28;20019;-56
2022/10/15 04:05:51;;;;;;;16.27;10.38;;;;;;;14.59;85.29;100807.25;4992125;28;20031;-57
2022/10/15 04:08:18;;;;;;;13.88;10.77;;;;;;;14.60;85.11;100809.72;4976728;28;20026;-56
2022/10/15 04:10:45;;;;;;;15.32;10.40;;;;;;;14.73;84.27;100808.69;4992170;28;20035;-56
2022/10/15 04:13:11;;;;;;;14.95;10.55;;;;;;;14.63;84.77;100813.84;4992493;28;20057;-56
2022/10/15 04:15:40;;;;;;;16.27;10.02;;;;;;;14.77;84.06;100804.47;4994659;28;20030;-56
2022/10/15 04:18:07;;;;;;;17.42;10.27;;;;;;;14.82;83.87;100811.84;4993630;28;20022;-57
2022/10/15 04:20:33;;;;;;;17.08;11.02;;;;;;;14.65;84.11;100811.72;4994861;28;20058;-56
2022/10/15 04:22:59;;;;;;;16.13;10.07;;;;;;;14.58;84.54;100819.09;4983663;28;20027;-57
2022/10/15 04:25:25;;;;;;;13.13;10.15;;;;;;;14.73;83.69;100820.28;4993169;28;20394;-56
2022/10/15 04:27:52;;;;;;;17.58;10.55;;;;;;;14.82;83.39;100818.03;4993608;28;20109;-56
2022/10/15 04:30:18;;;;;;;17.40;10.88;;;;;;;14.78;83.32;100822.28;4993946;28;20463;-57
2022/10/15 04:32:45;;;;;;;15.38;10.75;;;;;;;14.91;82.84;100819.34;4993935;28;20436;-57
2022/10/15 04:35:11;;;;;;;16.95;10.82;;;;;;;14.75;83.76;100828.13;4993745;28;20398;-57
2022/10/15 04:37:37;;;;;;;14.70;9.68;;;;;;;14.87;82.99;100838.91;4993852;28;20022;-56
2022/10/15 04:40:04;;;;;;;18.92;10.15;;;;;;;14.78;82.87;100838.44;4992614;28;20050;-57
2022/10/15 04:42:30;;;;;;;15.27;10.57;;;;;;;14.86;82.80;100845.34;4995597;28;20463;-56
2022/10/15 04:44:57;;;;;;;14.85;9.68;;;;;;;14.99;82.38;100851.34;4991607;28;20037;-56
2022/10/15 04:47:23;;;;;;;15.90;9.07;;;;;;;15.04;82.28;100858.69;4995308;28;20034;-56
2022/10/15 04:49:49;;;;;;;16.25;10.32;;;;;;;15.11;82.02;100855.91;4992269;28;20054;-56
2022/10/15 04:52:15;;;;;;;18.63;9.65;;;;;;;14.82;82.72;100866.53;4995458;28;20034;-56
2022/10/15 04:54:41;;;;;;;13.07;8.65;;;;;;;14.86;82.84;100873.13;4993542;28;20086;-56
2022/10/15 04:57:08;;;;;;;19.98;10.27;;;;;;;14.94;82.53;100874.66;4989565;28;20023;-56
2022/10/15 04:59:34;;;;;;;14.82;9.77;;;;;;;14.98;82.29;100879.31;4988844;28;20034;-56
2022/10/15 05:02:00;;;;;;;13.77;9.68;;;;;;;15.07;81.71;100889.78;4992212;28;20042;-57
2022/10/15 05:04:27;;;;;;;15.75;8.88;;;;;;;15.10;81.79;100886.59;4993046;28;20037;-57
2022/10/15 05:06:53;;;;;;;14.70;9.57;;;;;;;15.12;81.70;100881.81;4993720;28;20022;-56
2022/10/15 05:09:19;;;;;;;12.48;9.50;;;;;;;15.22;80.97;100880.16;4993297;28;20438;-57
2022/10/15 05:11:45;;;;;;;13.35;9.50;;;;;;;15.18;80.80;100878.16;4993127;28;20027;-57
2022/10/15 05:14:12;;;;;;;15.30;9.52;;;;;;;15.33;80.38;100883.91;4989326;28;20977;-56
2022/10/15 05:16:38;;;;;;;10.20;8.00;;;;;;;15.29;80.29;100880.84;4993591;28;20041;-57
2022/10/15 05:19:06;;;;;;;13.48;9.20;;;;;;;15.26;80.36;100880.50;4992848;28;20332;-57
2022/10/15 05:21:34;;;;;;;15.85;9.77;;;;;;;15.29;80.21;100886.25;4978996;28;20034;-57
2022/10/15 05:24:01;;;;;;;13.18;9.20;;;;;;;15.31;79.91;100886.00;4992595;28;20031;-56
2022/10/15 05:26:28;;;;;;;15.13;9.63;;;;;;;15.21;80.37;100894.72;4993326;28;20023;-56
2022/10/15 05:28:56;;;;;;;13.75;8.60;;;;;;;15.35;79.89;100891.75;4992497;28;20026;-57
2022/10/15 05:31:25;;;;;;;13.48;8.98;;;;;;;15.23;80.29;100897.16;4993032;28;20041;-56
2022/10/15 05:33:52;;;;;;;13.77;9.27;;;;;;;15.34;80.39;100895.50;4992822;28;20475;-56
2022/10/15 05:36:20;;;;;;;15.98;10.30;;;;;;;15.30;80.25;100898.66;4992701;28;20498;-56
2022/10/15 05:38:48;;;;;;;13.93;9.85;;;;;;;15.30;79.79;100900.53;4992647;28;20484;-57
2022/10/15 05:41:15;;;;;;;15.90;9.75;;;;;;;15.56;78.64;100899.22;4992965;28;20092;-56
2022/10/15 05:43:41;;;;;;;18.10;10.32;;;;;;;15.35;79.64;100906.06;4992700;28;20491;-56
2022/10/15 05:46:08;;;;;;;14.07;8.98;;;;;;;15.23;79.84;100897.16;4993233;28;20810;-56
2022/10/15 05:48:34;;;;;;;15.43;9.90;;;;;;;15.36;79.67;100898.78;4992564;28;20478;-56
2022/10/15 05:51:02;;;;;;;15.40;9.65;;;;;;;15.42;79.06;100890.56;4994173;28;20084;-57
2022/10/15 05:53:28;;;;;;;15.63;9.32;;;;;;;15.35;79.48;100887.19;4991312;28;20097;-57
2022/10/15 05:55:55;;;;;;;16.80;9.65;;;;;;;15.41;79.04;100897.00;4994121;28;20030;-56
2022/10/15 05:58:21;;;;;;;14.93;9.23;;;;;;;15.38;79.32;100892.13;4980624;28;20042;-56
2022/10/15 06:00:57;;;;;;;13.82;8.85;;;;;;;15.38;79.06;100897.50;4990644;28;20340;-56
2022/10/15 06:03:25;;;;;;;15.73;9.88;;;;;;;15.51;78.50;100901.81;4980713;28;20031;-56
2022/10/15 06:05:51;;;;;;;16.13;9.77;;;;;;;15.41;78.86;100899.72;4988886;28;20053;-56
2022/10/15 06:08:19;;;;;;;14.15;9.43;;;;;;;15.39;78.97;100898.31;4992670;28;20022;-56
2022/10/15 06:10:45;;;;;;;14.95;10.40;;;;;;;15.42;79.09;100904.03;4991954;28;20030;-56
2022/10/15 06:13:12;;;;;;;16.05;9.25;;;;;;;15.39;79.27;100909.94;4992044;28;20062;-56
2022/10/15 06:15:39;;;;;;;14.70;9.88;;;;;;;15.29;79.69;100909.69;4993372;28;20027;-56
2022/10/15 06:18:06;;;;;;;17.17;9.90;;;;;;;15.31;79.60;100910.28;4990769;28;20038;-56
2022/10/15 06:20:32;;;;;;;15.40;9.15;;;;;;;15.24;79.80;100914.97;4992902;28;20030;-56
2022/10/15 06:23:02;;;;;;;16.17;9.73;;;;;;;15.38;79.39;100912.84;4988342;28;20031;-56
2022/10/15 06:25:28;;;;;;;16.80;9.52;;;;;;;15.43;79.32;100911.06;4992623;28;20030;-56
2022/10/15 06:27:55;;;;;;;20.73;11.10;;;;;;;15.26;79.87;100913.66;4993771;28;20109;-57
2022/10/15 06:30:21;;;;;;;20.15;12.05;;;;;;;15.35;80.42;100908.75;4990289;28;20339;-57
2022/10/15 06:32:52;;;;;;;21.10;11.85;;;;;;;15.34;80.58;100912.50;4993749;28;20026;-56
2022/10/15 06:35:20;;;;;;;18.17;12.00;;;;;;;15.26;81.21;100910.16;4991616;28;20110;-57
2022/10/15 06:37:47;;;;;;;18.58;10.55;;;;;;;15.32;80.63;100904.66;4992225;28;20022;-57
2022/10/15 06:40:13;;;;;;;21.85;11.70;;;;;;;15.39;80.59;100899.13;4991511;28;20039;-56
2022/10/15 06:42:40;;;;;;;16.50;10.63;;;;;;;15.39;80.52;100896.44;4990466;28;20031;-57
2022/10/15 06:45:08;;;;;;;25.80;13.18;;;;;;;15.38;80.86;100894.81;4991627;28;20546;-56
2022/10/15 06:47:35;;;;;;;22.15;11.45;;;;;;;15.32;81.08;100898.41;4993109;28;20038;-56
2022/10/15 06:50:01;;;;;;;24.05;12.18;;;;;;;15.27;81.11;100896.47;4990256;28;20073;-56
2022/10/15 06:52:29;;;;;;;25.90;12.50;;;;;;;15.33;80.87;100900.09;4991772;28;20062;-57
2022/10/15 06:54:55;;;;;;;18.75;11.15;;;;;;;15.35;80.79;100895.25;4991184;28;20034;-56
2022/10/15 06:57:24;;;;;;;23.20;11.65;;;;;;;15.21;81.43;100896.56;4991585;28;20030;-56
2022/10/15 06:59:51;;;;;;;21.58;12.20;;;;;;;15.35;80.75;100897.16;4981039;28;20022;-55
2022/10/15 07:02:18;;;;;;;17.38;11.75;;;;;;;15.33;81.17;100902.78;4989149;28;20040;-56
2022/10/15 07:04:47;;;;;;;21.88;12.43;;;;;;;15.26;81.11;100889.41;4991620;28;20084;-56
2022/10/15 07:07:14;;;;;;;21.38;12.05;;;;;;;15.34;80.85;100888.25;4990551;28;20022;-57
2022/10/15 07:09:40;;;;;;;19.30;11.25;;;;;;;15.34;80.83;100893.63;4990559;28;20030;-56
2022/10/15 07:12:06;;;;;;;22.48;11.25;;;;;;;15.43;80.63;100889.50;4992674;28;20057;-57
2022/10/15 07:14:32;;;;;;;22.83;12.02;;;;;;;15.23;80.62;100891.78;4991677;28;20034;-56
2022/10/15 07:16:59;;;;;;;18.77;11.13;;;;;;;15.45;80.18;100886.59;4991606;28;20053;-57
2022/10/15 07:19:27;;;;;;;25.98;12.27;;;;;;;15.47;79.86;100887.97;4990806;28;20042;-57
2022/10/15 07:21:53;;;;;;;24.13;12.07;;;;;;;15.36;80.23;100888.00;4990542;28;20463;-57
2022/10/15 07:24:20;;;;;;;21.27;12.05;;;;;;;15.47;79.97;100890.66;4987433;28;20367;-57
2022/10/15 07:26:49;;;;;;;21.58;10.73;;;;;;;15.59;79.10;100888.78;4990584;28;20030;-57
2022/10/15 07:29:15;;;;;;;21.00;10.77;;;;;;;15.47;79.75;100889.84;4990160;28;20046;-56
2022/10/15 07:31:42;;;;;;;18.90;11.00;;;;;;;15.38;80.01;100889.41;4992098;28;20507;-57
2022/10/15 07:34:08;;;;;;;17.15;11.23;;;;;;;15.41;79.85;100883.53;4989869;28;20038;-56
2022/10/15 07:36:34;;;;;;;20.30;11.93;;;;;;;15.49;79.89;100883.19;4990874;28;20033;-56
2022/10/15 07:39:01;;;;;;;25.67;12.60;;;;;;;15.46;80.11;100886.34;4990546;28;20117;-56
2022/10/15 07:41:27;;;;;;;23.17;12.13;;;;;;;15.63;80.08;100880.25;4989332;28;20034;-56
2022/10/15 07:43:53;;;;;;;24.27;12.82;;;;;;;15.59;80.39;100877.16;4984780;28;20499;-56
2022/10/15 07:46:19;;;;;;;25.85;13.25;;;;;;;15.62;80.33;100882.09;4971360;28;20117;-56
2022/10/15 07:48:45;;;;;;;27.58;13.40;;;;;;;15.58;80.36;100883.63;4984242;28;20053;-56
2022/10/15 07:51:12;;;;;;;34.78;12.63;;;;;;;15.45;80.73;100887.41;4974629;28;20380;-56
2022/10/15 07:53:38;;;;;;;25.63;12.35;;;;;;;15.45;80.77;100887.41;4972258;28;20443;-56
2022/10/15 07:56:11;;;;;;;23.55;12.30;;;;;;;15.55;81.01;100890.31;4992151;28;20486;-56
2022/10/15 07:58:38;;;;;;;29.83;12.95;;;;;;;15.53;81.04;100881.63;4990333;28;20089;-57
2022/10/15 08:01:06;;;;;;;27.50;13.27;;;;;;;15.50;81.62;100895.59;4989632;28;20034;-56
2022/10/15 08:03:33;;;;;;;24.35;13.15;;;;;;;15.48;81.83;100897.69;4976301;28;20022;-57
2022/10/15 08:06:00;;;;;;;28.70;13.85;;;;;;;15.44;81.98;100891.16;4981211;28;20399;-56
2022/10/15 08:08:27;;;;;;;25.15;12.95;;;;;;;15.36;82.73;100899.59;4971716;28;20442;-56
2022/10/15 08:10:53;;;;;;;25.50;12.85;;;;;;;15.34;82.80;100906.31;4990466;28;20034;-54
2022/10/15 08:13:20;;;;;;;19.63;11.80;;;;;;;15.40;82.32;100900.78;4990797;28;20105;-56
2022/10/15 08:15:47;;;;;;;24.88;12.90;;;;;;;15.34;nan;100907.13;4990900;28;20081;-56
2022/10/15 08:18:13;;;;;;;26.70;12.20;;;;;;;15.29;82.36;100904.31;4989212;28;20058;-56
2022/10/15 08:20:40;;;;;;;24.38;11.98;;;;;;;15.38;81.52;100902.91;4989761;28;20036;-56
2022/10/15 08:23:14;;;;;;;21.88;12.05;;;;;;;15.42;81.33;100909.44;4988976;28;20053;-56
2022/10/15 08:25:41;;;;;;;22.50;12.98;;;;;;;15.35;81.76;100908.75;4990001;28;20040;-56
2022/10/15 08:28:10;;;;;;;25.45;12.52;;;;;;;15.41;82.00;100907.00;4990220;28;20053;-56
2022/10/15 08:30:37;;;;;;;20.95;12.85;;;;;;;15.42;81.73;100914.03;4990312;28;20077;-55
2022/10/15 08:33:03;;;;;;;26.63;11.80;;;;;;;15.29;82.22;100904.31;4989534;28;20034;-56
2022/10/15 08:35:34;;;;;;;27.17;12.38;;;;;;;15.29;82.34;100901.59;4990247;28;20034;-56
2022/10/15 08:38:01;;;;;;;31.45;13.38;;;;;;;15.33;82.47;100902.78;4982406;28;20061;-57
2022/10/15 08:40:28;;;;;;;19.83;11.95;;;;;;;15.32;82.41;100910.06;4974417;28;20470;-56
2022/10/15 08:42:56;;;;;;;19.20;11.68;;;;;;;15.20;82.80;100903.81;4988305;28;20046;-56
2022/10/15 08:45:30;;;;;;;18.35;11.73;;;;;;;15.27;81.87;100911.81;4991786;28;20033;-56
2022/10/15 08:48:06;;;;;;;17.85;10.93;;;;;;;15.23;81.99;100921.44;4991080;28;20030;-56
2022/10/15 08:50:40;;;;;;;23.70;11.55;;;;;;;15.19;82.72;100925.63;4991362;28;20023;-56
2022/10/15 08:53:18;;;;;;;19.40;10.52;;;;;;;15.07;83.02;100932.91;4991823;28;20030;-56
2022/10/15 08:55:48;;;;;;;18.25;10.52;;;;;;;15.16;82.64;100931.53;4991893;28;20073;-56
2022/10/15 08:58:24;;;;;;;17.08;11.07;;;;;;;15.22;82.70;100931.41;4995172;28;20475;-56
2022/10/15 09:01:03;;;;;;;16.73;10.65;;;;;;;15.26;82.13;100932.53;4995172;28;20042;-56
2022/10/15 09:03:44;;;;;;;19.75;11.65;;;;;;;15.25;82.01;100938.19;4995293;28;20478;-56
2022/10/15 09:06:22;;;;;;;21.00;11.02;;;;;;;15.13;82.43;100940.88;4994924;28;20037;-56
2022/10/15 09:09:09;;;;;;;19.67;10.23;;;;;;;15.11;82.51;100947.56;4990212;28;20034;-56
2022/10/15 09:11:53;;;;;;;16.25;10.35;;;;;;;15.09;82.32;100947.78;4994434;28;20720;-56
2022/10/15 09:14:24;;;;;;;19.40;11.20;;;;;;;15.11;82.58;100943.00;4993233;28;20039;-57
2022/10/15 09:16:50;;;;;;;18.08;11.27;;;;;;;15.02;82.72;100955.97;4995338;28;20104;-56
2022/10/15 09:19:22;;;;;;;18.17;10.25;;;;;;;15.06;nan;100953.66;4991294;28;21860;-56
2022/10/15 09:21:51;;;;;;;21.50;11.75;;;;;;;15.02;83.35;100949.78;4988784;28;20456;-56
2022/10/15 09:24:26;;;;;;;17.52;11.15;;;;;;;14.96;83.54;100948.00;4993908;28;20019;-56
2022/10/15 09:27:13;;;;;;;20.15;10.73;;;;;;;15.01;83.59;100961.63;4993264;28;20027;-56
2022/10/15 09:30:12;;;;;;;16.20;10.52;;;;;;;14.97;83.36;100965.81;4993066;28;20054;-56
2022/10/15 09:32:52;;;;;;;16.63;10.73;;;;;;;14.90;83.14;100959.72;4994412;28;20112;-56
2022/10/15 09:35:24;;;;;;;18.00;10.68;;;;;;;14.91;83.12;100967.56;4993464;28;20434;-56
2022/10/15 09:38:12;;;;;;;16.70;9.95;;;;;;;14.98;82.65;100972.84;4993447;28;20033;-56
2022/10/15 09:40:59;;;;;;;15.15;9.15;;;;;;;14.92;82.74;100968.38;4992877;28;20038;-56
2022/10/15 09:43:34;;;;;;;14.40;8.65;;;;;;;14.87;82.16;100979.03;4993058;28;20030;-56
2022/10/15 09:46:02;;;;;;;14.13;8.75;;;;;;;14.91;81.64;100972.13;4992734;28;20109;-56
2022/10/15 09:48:33;;;;;;;13.05;8.43;;;;;;;14.85;82.20;100979.28;4992589;28;20378;-55
2022/10/15 09:51:10;;;;;;;13.60;8.88;;;;;;;14.88;81.91;100976.13;4993965;28;20038;-56
2022/10/15 09:53:56;;;;;;;15.43;9.55;;;;;;;14.88;82.23;100978.81;4992134;28;20047;-56
2022/10/15 09:56:28;;;;;;;11.02;8.45;;;;;;;14.93;81.89;100972.72;4993682;28;20034;-56
2022/10/15 09:58:57;;;;;;;15.75;8.98;;;;;;;14.99;81.17;100975.34;4990899;28;20633;-56
2022/10/15 10:01:29;;;;;;;13.05;8.70;;;;;;;15.00;80.88;100976.16;4992843;28;20034;-56
2022/10/15 10:04:12;;;;;;;12.77;8.70;;;;;;;14.90;81.33;100970.50;4992547;28;20030;-56
2022/10/15 10:06:44;;;;;;;10.48;7.68;;;;;;;14.86;81.39;100961.22;4989964;28;20037;-56
2022/10/15 10:09:18;;;;;;;12.40;7.93;;;;;;;14.90;81.19;100970.50;4989566;28;20034;-56
2022/10/15 10:11:52;;;;;;;11.23;7.68;;;;;;;14.84;81.04;100972.25;4992010;28;20121;-56
2022/10/15 10:14:25;;;;;;;17.65;8.50;;;;;;;14.71;81.46;100967.03;4984455;28;20379;-56
2022/10/15 10:17:12;;;;;;;13.27;8.10;;;;;;;14.70;81.38;100968.91;4992516;28;20053;-56
2022/10/15 10:19:38;;;;;;;11.30;7.40;;;;;;;14.84;80.58;100963.34;4977536;28;20046;-56
2022/10/15 10:22:16;;;;;;;12.35;8.20;;;;;;;14.87;80.86;100971.78;4980485;28;20027;-56
2022/10/15 10:24:43;;;;;;;13.27;8.65;;;;;;;14.88;80.58;100965.34;4988582;28;20062;-56
2022/10/15 10:27:23;;;;;;;15.18;8.65;;;;;;;14.80;81.02;100971.06;4991316;28;20120;-56
2022/10/15 10:29:59;;;;;;;12.27;8.65;;;;;;;14.69;81.21;100964.59;4991498;28;20411;-56
2022/10/15 10:32:32;;;;;;;11.68;8.50;;;;;;;14.79;81.01;100966.72;4990671;28;20494;-56
2022/10/15 10:35:01;;;;;;;10.80;7.38;;;;;;;14.81;80.56;100966.50;4991278;28;20040;-57
2022/10/15 10:37:28;;;;;;;11.63;8.30;;;;;;;14.76;81.15;100959.91;4992104;28;20031;-56
2022/10/15 10:39:59;;;;;;;12.43;8.30;;;;;;;14.86;81.40;100974.69;4992386;28;20103;-56
2022/10/15 10:42:37;;;;;;;14.85;8.63;;;;;;;14.82;81.16;100965.44;4991023;28;20045;-56
2022/10/15 10:45:16;;;;;;;11.75;7.82;;;;;;;14.79;80.86;100959.47;4991426;28;20030;-57
2022/10/15 10:47:43;;;;;;;10.73;8.13;;;;;;;14.88;80.65;100967.19;4991525;28;20085;-56
2022/10/15 10:50:34;;;;;;;13.32;8.15;;;;;;;14.86;80.81;100970.13;4989822;28;20138;-56
2022/10/15 10:53:24;;;;;;;11.57;7.65;;;;;;;14.99;80.67;100969.09;4990909;28;20114;-56
2022/10/15 10:55:53;;;;;;;16.98;8.50;;;;;;;15.02;80.46;100965.94;4991379;28;20034;-56
2022/10/15 10:58:22;;;;;;;15.35;8.25;;;;;;;15.04;80.34;100971.91;4990872;28;20512;-57
2022/10/15 11:00:54;;;;;;;10.88;8.25;;;;;;;14.92;80.94;100960.31;4990437;28;20074;-56
2022/10/15 11:03:26;;;;;;;14.60;7.90;;;;;;;14.91;80.50;100972.97;4990520;28;20053;-56
2022/10/15 11:06:00;;;;;;;11.27;7.32;;;;;;;14.97;80.26;100971.22;4992879;28;20118;-56
2022/10/15 11:08:43;;;;;;;13.57;8.25;;;;;;;14.92;80.50;100974.59;4990476;28;20030;-56
2022/10/15 11:11:09;;;;;;;10.15;7.03;;;;;;;14.93;80.10;100975.41;4991128;28;20061;-56
2022/10/15 11:13:46;;;;;;;9.68;7.50;;;;;;;14.92;79.81;100979.97;4991748;28;20027;-56
2022/10/15 11:16:22;;;;;;;10.13;7.35;;;;;;;15.07;79.18;100981.44;4991233;28;20479;-56
2022/10/15 11:19:16;;;;;;;10.55;7.20;;;;;;;14.93;79.56;100981.63;4990047;28;20054;-56
2022/10/15 11:22:13;;;;;;;10.13;6.95;;;;;;;14.85;79.51;100986.53;4981955;28;20054;-55
2022/10/15 11:24:50;;;;;;;9.23;7.00;;;;;;;14.95;79.45;100978.72;4990416;28;20062;-56
2022/10/15 11:27:39;;;;;;;12.52;7.10;;;;;;;15.04;79.20;100978.13;4989457;28;20037;-56
2022/10/15 11:30:25;;;;;;;10.48;7.22;;;;;;;15.02;79.16;100982.94;4990797;28;20018;-56